createdAt,value
2018-09-08T00:00:53.034Z,22.40
2018-09-08T00:03:22.349Z,22.30
2018-09-08T00:05:52.220Z,22.30
2018-09-08T00:08:21.523Z,22.30
2018-09-08T00:10:50.925Z,22.30
2018-09-08T00:13:20.224Z,22.30
2018-09-08T00:15:54.528Z,22.30
2018-09-08T00:18:28.988Z,22.30
2018-09-08T00:21:03.486Z,22.30
2018-09-08T00:23:37.957Z,22.30
2018-09-08T00:26:12.452Z,22.30
2018-09-08T00:28:46.024Z,22.30
2018-09-08T00:31:18.167Z,22.30
2018-09-08T00:33:47.858Z,22.30
2018-09-08T00:36:17.808Z,22.30
2018-09-08T00:38:47.093Z,22.30
2018-09-08T00:41:16.498Z,22.30
2018-09-08T00:43:45.781Z,22.30
2018-09-08T00:46:15.458Z,22.30
2018-09-08T00:48:44.761Z,22.30
2018-09-08T00:51:14.204Z,22.30
2018-09-08T00:53:43.540Z,22.30
2018-09-08T00:56:12.839Z,22.30
2018-09-08T00:58:46.210Z,22.30
2018-09-08T01:01:15.667Z,22.20
2018-09-08T01:03:45.084Z,22.20
2018-09-08T01:06:14.380Z,22.20
2018-09-08T01:08:43.682Z,22.20
2018-09-08T01:11:13.014Z,22.20
2018-09-08T01:13:42.315Z,22.20
2018-09-08T01:16:11.607Z,22.20
2018-09-08T01:18:41.038Z,22.20
2018-09-08T01:21:10.505Z,22.20
2018-09-08T01:23:39.979Z,22.20
2018-09-08T01:26:09.280Z,22.20
2018-09-08T01:28:38.600Z,22.20
2018-09-08T01:31:07.928Z,22.20
2018-09-08T01:33:37.329Z,22.20
2018-09-08T01:36:06.635Z,22.20
2018-09-08T01:38:35.953Z,22.20
2018-09-08T01:41:05.355Z,22.20
2018-09-08T01:43:34.719Z,22.20
2018-09-08T01:46:04.034Z,22.20
2018-09-08T01:48:33.336Z,22.20
2018-09-08T01:51:02.772Z,22.20
2018-09-08T01:53:32.198Z,22.20
2018-09-08T01:56:01.541Z,22.20
2018-09-08T01:58:30.918Z,22.10
2018-09-08T02:01:00.233Z,22.10
2018-09-08T02:03:29.549Z,22.10
2018-09-08T02:05:58.953Z,22.10
2018-09-08T02:08:34.806Z,22.10
2018-09-08T02:11:04.215Z,22.10
2018-09-08T02:13:33.509Z,22.10
2018-09-08T02:16:02.811Z,22.10
2018-09-08T02:18:32.183Z,22.10
2018-09-08T02:21:01.465Z,22.10
2018-09-08T02:23:30.769Z,22.10
2018-09-08T02:26:01.847Z,22.10
2018-09-08T02:28:31.765Z,22.10
2018-09-08T02:31:01.483Z,22.10
2018-09-08T02:33:30.780Z,22.10
2018-09-08T02:36:00.186Z,22.10
2018-09-08T02:38:29.508Z,22.10
2018-09-08T02:40:58.893Z,22.10
2018-09-08T02:43:28.212Z,22.10
2018-09-08T02:45:57.524Z,22.10
2018-09-08T02:48:26.822Z,22.10
2018-09-08T02:50:54.625Z,22.10
2018-09-08T02:53:22.381Z,22.10
2018-09-08T02:55:50.213Z,22.00
2018-09-08T02:58:17.944Z,22.10
2018-09-08T03:00:45.774Z,22.00
2018-09-08T03:03:13.508Z,22.00
2018-09-08T03:05:41.245Z,22.00
2018-09-08T03:08:09.344Z,22.00
2018-09-08T03:10:37.133Z,22.00
2018-09-08T03:13:04.837Z,22.00
2018-09-08T03:15:32.585Z,22.00
2018-09-08T03:18:00.296Z,22.10
2018-09-08T03:20:28.099Z,22.00
2018-09-08T03:22:55.818Z,22.10
2018-09-08T03:25:23.529Z,22.00
2018-09-08T03:27:51.687Z,22.00
2018-09-08T03:30:19.742Z,22.00
2018-09-08T03:32:47.463Z,22.00
2018-09-08T03:35:15.183Z,22.00
2018-09-08T03:37:42.898Z,22.00
2018-09-08T03:40:10.758Z,22.00
2018-09-08T03:42:38.496Z,22.00
2018-09-08T03:45:06.517Z,22.00
2018-09-08T03:47:34.252Z,22.00
2018-09-08T03:50:02.077Z,22.00
2018-09-08T03:52:29.789Z,22.00
2018-09-08T03:54:57.549Z,22.00
2018-09-08T03:57:25.328Z,22.00
2018-09-08T03:59:53.300Z,22.00
2018-09-08T04:02:21.040Z,22.00
2018-09-08T04:04:50.507Z,22.00
2018-09-08T04:07:19.957Z,22.00
2018-09-08T04:09:49.442Z,22.00
2018-09-08T04:12:19.020Z,22.00
2018-09-08T04:14:48.474Z,22.00
2018-09-08T04:17:18.089Z,22.00
2018-09-08T04:19:47.517Z,22.00
2018-09-08T04:22:21.360Z,22.00
2018-09-08T04:24:50.774Z,22.00
2018-09-08T04:27:20.082Z,22.00
2018-09-08T04:29:49.536Z,22.00
2018-09-08T04:32:18.959Z,22.00
2018-09-08T04:34:48.358Z,22.00
2018-09-08T04:37:17.776Z,22.00
2018-09-08T04:39:47.141Z,22.00
2018-09-08T04:42:16.623Z,22.00
2018-09-08T04:44:46.089Z,22.00
2018-09-08T04:47:15.512Z,22.00
2018-09-08T04:49:45.048Z,22.00
2018-09-08T04:52:14.497Z,21.90
2018-09-08T04:54:43.942Z,21.90
2018-09-08T04:57:13.417Z,21.90
2018-09-08T04:59:42.834Z,21.90
2018-09-08T05:02:12.348Z,22.00
2018-09-08T05:04:41.809Z,21.90
2018-09-08T05:07:11.268Z,21.90
2018-09-08T05:09:40.662Z,21.90
2018-09-08T05:12:10.247Z,22.00
2018-09-08T05:14:39.814Z,21.90
2018-09-08T05:17:09.295Z,21.90
2018-09-08T05:19:38.743Z,21.90
2018-09-08T05:22:08.234Z,21.90
2018-09-08T05:24:37.749Z,21.90
2018-09-08T05:27:08.293Z,21.90
2018-09-08T05:29:37.945Z,21.90
2018-09-08T05:32:07.468Z,21.90
2018-09-08T05:34:37.004Z,21.90
2018-09-08T05:37:06.501Z,22.00
2018-09-08T05:39:35.968Z,22.10
2018-09-08T05:42:05.477Z,22.20
2018-09-08T05:44:34.953Z,22.20
2018-09-08T05:47:04.549Z,22.20
2018-09-08T05:49:34.065Z,22.30
2018-09-08T05:52:03.584Z,22.30
2018-09-08T05:54:33.054Z,22.20
2018-09-08T05:57:02.549Z,22.30
2018-09-08T05:59:32.077Z,22.40
2018-09-08T06:02:01.546Z,22.30
2018-09-08T06:04:31.488Z,22.30
2018-09-08T06:07:02.015Z,22.30
2018-09-08T06:09:32.630Z,22.10
2018-09-08T06:12:02.193Z,22.10
2018-09-08T06:14:32.733Z,22.10
2018-09-08T06:17:02.270Z,22.10
2018-09-08T06:19:31.809Z,22.10
2018-09-08T06:22:01.398Z,22.10
2018-09-08T06:24:30.895Z,22.00
2018-09-08T06:27:00.320Z,22.00
2018-09-08T06:29:29.800Z,22.00
2018-09-08T06:31:59.353Z,22.00
2018-09-08T06:34:28.744Z,22.00
2018-09-08T06:36:58.267Z,22.00
2018-09-08T06:39:27.673Z,22.00
2018-09-08T06:41:57.293Z,22.00
2018-09-08T06:44:26.766Z,22.00
2018-09-08T06:46:56.229Z,22.00
2018-09-08T06:49:25.717Z,22.00
2018-09-08T06:51:55.357Z,22.00
2018-09-08T06:54:24.834Z,22.10
2018-09-08T06:56:54.304Z,22.10
2018-09-08T06:59:23.680Z,22.10
2018-09-08T07:01:53.274Z,22.10
2018-09-08T07:04:22.807Z,22.20
2018-09-08T07:06:52.907Z,22.20
2018-09-08T07:09:22.348Z,22.20
2018-09-08T07:11:51.974Z,22.20
2018-09-08T07:14:21.732Z,22.20
2018-09-08T07:16:51.121Z,22.20
2018-09-08T07:19:20.618Z,22.20
2018-09-08T07:21:50.964Z,22.30
2018-09-08T07:24:20.652Z,22.20
2018-09-08T07:26:50.138Z,22.20
2018-09-08T07:29:19.623Z,22.30
2018-09-08T07:31:49.298Z,22.40
2018-09-08T07:34:18.754Z,22.30
2018-09-08T07:36:48.197Z,22.30
2018-09-08T07:39:17.585Z,22.40
2018-09-08T07:41:47.106Z,22.50
2018-09-08T07:44:16.532Z,22.50
2018-09-08T07:46:46.088Z,22.50
2018-09-08T07:49:15.494Z,22.50
2018-09-08T07:51:45.098Z,22.50
2018-09-08T07:54:14.574Z,22.60
2018-09-08T07:56:44.033Z,22.60
2018-09-08T07:59:13.574Z,22.50
2018-09-08T08:01:43.097Z,22.50
2018-09-08T08:04:13.778Z,22.40
2018-09-08T08:06:43.437Z,22.50
